createdAt,value
2019-05-17T00:00:50.501Z,69.55
2019-05-17T00:06:57.052Z,69.55
2019-05-17T00:13:03.088Z,69.39
2019-05-17T00:19:09.461Z,69.31
2019-05-17T00:25:16.970Z,69.19
2019-05-17T00:31:22.809Z,69.39
2019-05-17T00:37:30.360Z,69.28
2019-05-17T00:43:36.825Z,69.20
2019-05-17T00:49:43.119Z,69.62
2019-05-17T00:55:49.138Z,69.50
2019-05-17T01:01:56.229Z,69.38
2019-05-17T01:08:02.243Z,69.64
2019-05-17T01:14:07.965Z,69.49
2019-05-17T01:20:14.230Z,69.71
2019-05-17T01:26:20.194Z,69.53
2019-05-17T01:32:26.643Z,69.59
2019-05-17T01:38:32.964Z,69.88
2019-05-17T01:44:38.769Z,70.46
2019-05-17T01:50:46.457Z,70.01
2019-05-17T01:56:52.373Z,69.90
2019-05-17T02:02:58.577Z,69.59
2019-05-17T02:09:06.353Z,69.25
2019-05-17T02:15:16.471Z,69.25
2019-05-17T02:21:22.710Z,69.02
2019-05-17T02:27:34.784Z,69.25
2019-05-17T02:33:36.220Z,69.14
2019-05-17T02:39:56.574Z,69.17
2019-05-17T02:45:52.504Z,69.34
2019-05-17T02:51:57.359Z,69.45
2019-05-17T02:58:03.661Z,69.35
2019-05-17T03:04:12.811Z,69.21
2019-05-17T03:10:27.516Z,69.36
2019-05-17T03:16:26.315Z,69.42
2019-05-17T03:22:33.192Z,69.28
2019-05-17T03:28:42.447Z,69.56
2019-05-17T03:34:55.305Z,69.66
2019-05-17T03:41:09.465Z,69.86
2019-05-17T03:47:04.688Z,69.65
2019-05-17T03:53:13.149Z,69.61
2019-05-17T03:59:20.569Z,69.51
2019-05-17T04:05:33.777Z,69.47
2019-05-17T04:11:42.708Z,69.30
2019-05-17T04:17:47.495Z,69.62
2019-05-17T04:23:53.964Z,69.52
2019-05-17T04:29:59.913Z,69.30
2019-05-17T04:36:06.034Z,69.58
2019-05-17T04:42:13.615Z,69.69
2019-05-17T04:48:23.011Z,69.68
2019-05-17T04:54:27.282Z,69.66
2019-05-17T05:00:34.012Z,69.48
2019-05-17T05:06:43.405Z,69.06
2019-05-17T05:12:48.306Z,69.13
2019-05-17T05:18:55.402Z,68.53
2019-05-17T05:25:02.182Z,68.15
2019-05-17T05:31:08.149Z,67.72
2019-05-17T05:37:14.121Z,67.73
2019-05-17T05:43:22.359Z,67.12
2019-05-17T05:49:27.585Z,67.04
2019-05-17T05:55:33.448Z,66.90
2019-05-17T06:01:41.889Z,66.71
2019-05-17T06:07:48.591Z,66.45
2019-05-17T06:13:54.343Z,66.28
2019-05-17T06:20:02.381Z,65.57
2019-05-17T06:26:08.035Z,65.19
2019-05-17T06:32:13.870Z,64.73
2019-05-17T06:38:19.598Z,64.34
2019-05-17T06:44:25.373Z,64.06
2019-05-17T06:50:32.729Z,63.51
2019-05-17T06:56:38.623Z,63.10
2019-05-17T07:02:44.402Z,62.88
2019-05-17T07:08:50.189Z,62.48
2019-05-17T07:14:58.331Z,61.95
2019-05-17T07:21:03.743Z,61.88
2019-05-17T07:27:09.962Z,61.42
2019-05-17T07:33:15.981Z,61.74
2019-05-17T07:39:22.347Z,60.91
2019-05-17T07:45:29.554Z,61.16
2019-05-17T07:51:35.576Z,61.02
2019-05-17T07:57:41.803Z,60.71
2019-05-17T08:03:50.093Z,60.49
2019-05-17T08:09:56.188Z,60.52
2019-05-17T08:16:02.159Z,59.82
2019-05-17T08:22:29.369Z,58.77
2019-05-17T08:28:35.200Z,57.38
2019-05-17T08:34:40.967Z,56.30
2019-05-17T08:40:47.113Z,55.67
2019-05-17T08:46:53.222Z,55.95
2019-05-17T08:52:59.927Z,55.96
2019-05-17T08:59:06.159Z,56.05
2019-05-17T09:05:12.019Z,56.03
2019-05-17T09:11:19.672Z,54.85
2019-05-17T09:17:25.499Z,55.01
2019-05-17T09:23:31.501Z,54.91
2019-05-17T09:29:37.279Z,54.90
2019-05-17T09:35:42.999Z,55.23
2019-05-17T09:41:50.309Z,55.07
2019-05-17T09:47:56.173Z,55.07
2019-05-17T09:54:01.942Z,55.68
2019-05-17T10:00:09.920Z,56.31
2019-05-17T10:06:15.926Z,56.75
2019-05-17T10:12:22.213Z,56.21
2019-05-17T10:18:29.585Z,57.05
2019-05-17T10:24:38.971Z,58.01
2019-05-17T10:30:43.232Z,56.57
2019-05-17T10:36:50.644Z,55.75
2019-05-17T10:42:56.566Z,55.33
2019-05-17T10:49:02.279Z,55.10
2019-05-17T10:55:10.412Z,55.18
2019-05-17T11:01:15.652Z,55.34
2019-05-17T11:07:21.462Z,55.60
2019-05-17T11:13:27.304Z,55.58
2019-05-17T11:19:33.075Z,56.24
2019-05-17T11:25:45.095Z,55.69
2019-05-17T11:31:46.363Z,55.88
2019-05-17T11:37:52.251Z,56.15
2019-05-17T11:43:58.274Z,56.13
2019-05-17T11:50:04.418Z,56.87
2019-05-17T11:56:10.539Z,56.96
2019-05-17T12:02:21.276Z,58.17
2019-05-17T12:08:26.111Z,60.17
2019-05-17T12:14:31.905Z,61.14
2019-05-17T12:20:37.682Z,62.12
2019-05-17T12:26:47.206Z,63.12
2019-05-17T12:32:52.841Z,63.12
2019-05-17T12:38:58.760Z,63.31
2019-05-17T12:45:04.861Z,63.87
2019-05-17T12:51:10.716Z,63.24
2019-05-17T12:57:16.619Z,63.43
2019-05-17T13:03:22.441Z,63.73
2019-05-17T13:09:28.283Z,64.21
2019-05-17T13:15:34.023Z,64.19
2019-05-17T13:21:39.789Z,64.78
2019-05-17T13:27:45.903Z,63.49
2019-05-17T13:33:51.877Z,63.77
2019-05-17T13:39:57.601Z,63.40
2019-05-17T13:46:03.337Z,62.69
2019-05-17T13:52:09.057Z,63.34
2019-05-17T13:58:14.835Z,63.39
2019-05-17T14:04:20.670Z,63.10
2019-05-17T14:10:29.897Z,62.28
2019-05-17T14:16:34.952Z,62.10
2019-05-17T14:22:40.825Z,62.44
2019-05-17T14:28:46.795Z,62.65
2019-05-17T14:34:52.916Z,62.94
2019-05-17T14:41:08.209Z,63.21
2019-05-17T14:47:06.408Z,63.97
2019-05-17T14:53:12.356Z,64.93
2019-05-17T14:59:18.184Z,64.17
2019-05-17T15:05:23.946Z,64.36
2019-05-17T15:11:29.737Z,65.10
2019-05-17T15:17:35.545Z,64.74
2019-05-17T15:23:41.264Z,65.13
2019-05-17T15:29:47.371Z,64.64
2019-05-17T15:35:53.252Z,65.31
2019-05-17T15:41:59.247Z,65.04
2019-05-17T15:48:05.041Z,65.59
2019-05-17T15:54:11.055Z,65.80
2019-05-17T16:00:17.067Z,66.28
2019-05-17T16:06:23.286Z,66.45
2019-05-17T16:12:29.042Z,66.49
2019-05-17T16:18:34.829Z,66.71
2019-05-17T16:24:40.621Z,66.54
2019-05-17T16:30:46.418Z,66.02
2019-05-17T16:36:52.163Z,66.51
2019-05-17T16:42:58.001Z,66.08
2019-05-17T16:49:03.740Z,66.20
2019-05-17T16:55:09.583Z,66.73
2019-05-17T17:01:15.412Z,66.41
2019-05-17T17:07:21.192Z,67.06
2019-05-17T17:13:33.244Z,67.19
2019-05-17T17:19:34.691Z,66.97
2019-05-17T17:25:40.595Z,66.76
2019-05-17T17:31:46.484Z,66.58
2019-05-17T17:37:52.485Z,67.01
2019-05-17T17:43:59.540Z,67.07
2019-05-17T17:50:05.633Z,67.59
2019-05-17T17:56:13.532Z,67.88
2019-05-17T18:02:19.181Z,67.97
2019-05-17T18:08:24.975Z,68.38
2019-05-17T18:14:31.047Z,68.50
2019-05-17T18:20:37.445Z,68.93
2019-05-17T18:26:43.685Z,68.86
2019-05-17T18:32:49.720Z,69.05
2019-05-17T18:38:56.539Z,69.18
2019-05-17T18:45:02.357Z,69.22
2019-05-17T18:51:08.228Z,69.44
2019-05-17T18:57:14.819Z,69.46
2019-05-17T19:03:20.664Z,69.72
2019-05-17T19:09:26.733Z,69.96
2019-05-17T19:15:32.745Z,70.25
2019-05-17T19:21:38.570Z,71.08
2019-05-17T19:27:44.479Z,71.77
2019-05-17T19:33:50.628Z,72.11
2019-05-17T19:39:57.890Z,72.11
2019-05-17T19:46:06.419Z,71.88
2019-05-17T19:52:12.407Z,71.24
2019-05-17T19:58:18.526Z,70.90
2019-05-17T20:04:24.391Z,71.43
2019-05-17T20:10:30.228Z,72.20
2019-05-17T20:16:36.009Z,72.46
2019-05-17T20:22:42.132Z,71.72
2019-05-17T20:28:48.704Z,71.59
2019-05-17T20:34:54.726Z,72.27
2019-05-17T20:41:00.751Z,72.83
2019-05-17T20:47:06.744Z,73.10
2019-05-17T20:53:19.054Z,73.26
2019-05-17T20:59:20.579Z,73.11
2019-05-17T21:05:26.440Z,72.51
2019-05-17T21:11:32.227Z,72.24
2019-05-17T21:17:38.006Z,72.26
2019-05-17T21:23:43.899Z,72.48
2019-05-17T21:29:50.130Z,72.81
2019-05-17T21:35:56.484Z,72.99
2019-05-17T21:42:02.320Z,72.89
2019-05-17T21:48:08.137Z,73.21
2019-05-17T21:54:14.044Z,73.27
2019-05-17T22:01:07.878Z,73.23
2019-05-17T22:07:13.988Z,72.96
2019-05-17T22:13:19.964Z,72.48
2019-05-17T22:19:26.013Z,72.31
2019-05-17T22:25:32.006Z,72.48
2019-05-17T22:31:39.027Z,72.48
2019-05-17T22:37:45.208Z,72.32
2019-05-17T22:43:51.160Z,72.17
2019-05-17T22:49:57.070Z,72.07
2019-05-17T22:56:03.070Z,71.80
2019-05-17T23:02:08.865Z,71.93
2019-05-17T23:08:14.930Z,72.09
2019-05-17T23:14:20.873Z,72.26
2019-05-17T23:20:33.323Z,72.66
2019-05-17T23:26:39.136Z,73.10
2019-05-17T23:32:44.909Z,73.09
2019-05-17T23:38:51.097Z,73.26
2019-05-17T23:44:57.219Z,73.35
2019-05-17T23:51:03.057Z,73.57
2019-05-17T23:57:09.018Z,74.19
